Time;durP1;ratioP1;P1;durP2;ratioP2;P2;SDS_P1;SDS_P2;PMS_P1;PMS_P2;Temp;Humidity;BMP_temperature;BMP_pressure;BME280_temperature;BME280_humidity;BME280_pressure;Samples;Min_cycle;Max_cycle;Signal;HPM_P1;HPM_P2
2022/05/18 00:02:08;;;;;;;;;;;24.70;50.60;;;;;;5055244;28;19912;-62
2022/05/18 00:04:34;;;;;;;;;;;24.70;50.70;;;;;;5055218;28;19909;-61
2022/05/18 00:06:59;;;;;;;;;;;24.70;50.70;;;;;;5055024;28;19935;-61
2022/05/18 00:09:25;;;;;;;;;;;24.70;50.60;;;;;;5055370;28;20410;-61
2022/05/18 00:11:50;;;;;;;;;;;24.60;50.60;;;;;;5054994;28;19920;-61
2022/05/18 00:14:16;;;;;;;;;;;24.60;50.60;;;;;;5053801;28;19916;-62
2022/05/18 00:16:41;;;;;;;;;;;24.60;50.70;;;;;;5053709;28;19909;-62
2022/05/18 00:19:07;;;;;;;;;;;24.60;50.70;;;;;;5054825;28;19913;-61
2022/05/18 00:21:32;;;;;;;;;;;24.60;50.60;;;;;;5054878;28;19909;-62
2022/05/18 00:23:58;;;;;;;;;;;24.60;50.60;;;;;;5054845;28;19909;-62
2022/05/18 00:26:24;;;;;;;;;;;24.60;50.50;;;;;;5053568;28;19991;-62
2022/05/18 00:28:50;;;;;;;;;;;24.60;50.70;;;;;;5053538;28;19909;-62
2022/05/18 00:31:17;;;;;;;;;;;24.60;50.60;;;;;;5054674;28;20373;-62
2022/05/18 00:33:42;;;;;;;;;;;24.60;50.60;;;;;;5054641;28;19913;-62
2022/05/18 00:36:08;;;;;;;;;;;24.60;50.50;;;;;;5054600;28;19961;-62
2022/05/18 00:38:33;;;;;;;;;;;24.60;50.60;;;;;;5054812;28;19951;-62
2022/05/18 00:40:58;;;;;;;;;;;24.60;50.50;;;;;;5053307;28;19970;-62
2022/05/18 00:43:30;;;;;;;;;;;24.60;50.50;;;;;;5054313;28;19951;-62
2022/05/18 00:45:56;;;;;;;;;;;24.50;50.40;;;;;;5053963;28;19924;-62
2022/05/18 00:48:21;;;;;;;;;;;24.50;50.40;;;;;;5054205;28;20062;-62
2022/05/18 00:50:47;;;;;;;;;;;24.60;50.50;;;;;;5053074;28;20372;-62
2022/05/18 00:53:19;;;;;;;;;;;24.50;50.40;;;;;;5052877;28;20460;-61
2022/05/18 00:55:47;;;;;;;;;;;24.50;50.30;;;;;;5036416;28;20003;-62
2022/05/18 00:58:16;;;;;;;;;;;24.60;50.40;;;;;;5054047;28;19951;-62
2022/05/18 01:00:41;;;;;;;;;;;24.50;50.30;;;;;;5052792;28;19909;-61
2022/05/18 01:03:14;;;;;;;;;;;24.50;50.30;;;;;;5052852;28;20292;-61
2022/05/18 01:05:40;;;;;;;;;;;24.50;50.30;;;;;;5052778;28;20446;-62
2022/05/18 01:08:05;;;;;;;;;;;24.50;50.20;;;;;;5052871;28;19909;-61
2022/05/18 01:10:31;;;;;;;;;;;24.50;50.20;;;;;;5053904;28;19959;-62
2022/05/18 01:12:57;;;;;;;;;;;24.50;50.20;;;;;;5053916;28;19913;-62
2022/05/18 01:15:22;;;;;;;;;;;24.50;50.20;;;;;;5054101;28;19962;-62
2022/05/18 01:17:49;;;;;;;;;;;24.50;50.20;;;;;;5052516;28;19916;-62
2022/05/18 01:20:19;;;;;;;;;;;24.50;50.10;;;;;;5053905;28;19909;-61
2022/05/18 01:23:05;;;;;;;;;;;24.50;50.10;;;;;;5052469;28;19916;-62
2022/05/18 01:25:34;;;;;;;;;;;24.50;50.10;;;;;;5022096;28;20284;-61
2022/05/18 01:28:00;;;;;;;;;;;24.50;50.10;;;;;;5052431;28;19909;-62
2022/05/18 01:30:26;;;;;;;;;;;24.50;50.00;;;;;;5053567;28;19931;-62
2022/05/18 01:32:52;;;;;;;;;;;24.50;50.00;;;;;;5052361;28;19978;-62
2022/05/18 01:35:18;;;;;;;;;;;24.50;50.00;;;;;;5053760;28;19912;-62
2022/05/18 01:37:44;;;;;;;;;;;24.50;50.00;;;;;;5053683;28;19909;-62
2022/05/18 01:40:28;;;;;;;;;;;24.50;50.00;;;;;;5053394;28;19909;-61
2022/05/18 01:42:54;;;;;;;;;;;24.50;50.00;;;;;;5053350;28;19916;-61
2022/05/18 01:45:20;;;;;;;;;;;24.50;50.00;;;;;;5051933;28;20403;-62
2022/05/18 01:47:48;;;;;;;;;;;24.40;49.90;;;;;;5053223;28;19916;-62
2022/05/18 01:50:14;;;;;;;;;;;24.40;49.90;;;;;;5052066;28;19916;-62
2022/05/18 01:52:39;;;;;;;;;;;24.40;49.90;;;;;;5053131;28;19948;-61
2022/05/18 01:55:05;;;;;;;;;;;24.40;49.90;;;;;;5051868;28;20348;-61
2022/05/18 01:57:32;;;;;;;;;;;24.40;49.90;;;;;;5051178;28;19912;-62
2022/05/18 01:59:57;;;;;;;;;;;24.40;49.80;;;;;;5053468;28;20289;-61
2022/05/18 02:02:24;;;;;;;;;;;24.40;49.90;;;;;;5053042;28;19909;-62
2022/05/18 02:04:49;;;;;;;;;;;24.40;49.80;;;;;;5053009;28;19948;-62
2022/05/18 02:07:15;;;;;;;;;;;24.40;49.80;;;;;;5052864;28;19908;-62
2022/05/18 02:09:40;;;;;;;;;;;24.40;49.80;;;;;;5052185;28;19909;-62
2022/05/18 02:12:07;;;;;;;;;;;24.40;49.80;;;;;;5051736;28;20351;-61
2022/05/18 02:14:32;;;;;;;;;;;24.40;49.80;;;;;;5052971;28;20353;-62
2022/05/18 02:16:58;;;;;;;;;;;24.40;49.90;;;;;;5051757;28;19908;-61
2022/05/18 02:19:23;;;;;;;;;;;24.40;50.10;;;;;;5051653;28;19915;-61
2022/05/18 02:21:49;;;;;;;;;;;24.40;49.80;;;;;;5052933;28;20383;-62
2022/05/18 02:24:15;;;;;;;;;;;24.40;49.80;;;;;;5052760;28;19909;-60
2022/05/18 02:26:40;;;;;;;;;;;24.30;49.60;;;;;;5052844;28;19955;-59
2022/05/18 02:29:06;;;;;;;;;;;24.30;49.70;;;;;;5051570;28;19916;-62
2022/05/18 02:31:31;;;;;;;;;;;24.30;49.70;;;;;;5052714;28;19916;-61
2022/05/18 02:33:57;;;;;;;;;;;24.30;49.80;;;;;;5052774;28;20044;-62
2022/05/18 02:36:22;;;;;;;;;;;24.30;49.70;;;;;;5052649;28;19962;-61
2022/05/18 02:38:48;;;;;;;;;;;24.30;49.70;;;;;;5051881;28;19966;-61
2022/05/18 02:41:13;;;;;;;;;;;24.30;49.70;;;;;;5052634;28;19917;-61
2022/05/18 02:43:39;;;;;;;;;;;24.30;49.80;;;;;;5052809;28;20276;-62
2022/05/18 02:46:08;;;;;;;;;;;24.30;49.60;;;;;;5052494;28;19966;-61
2022/05/18 02:48:34;;;;;;;;;;;24.30;49.70;;;;;;5051449;28;19913;-61
2022/05/18 02:50:59;;;;;;;;;;;24.30;49.60;;;;;;5052679;28;19916;-62
2022/05/18 02:53:24;;;;;;;;;;;24.30;49.60;;;;;;5052486;28;19919;-62
2022/05/18 02:56:05;;;;;;;;;;;24.30;49.60;;;;;;5052633;28;19912;-62
2022/05/18 02:58:38;;;;;;;;;;;24.30;49.60;;;;;;5052650;28;19915;-61
2022/05/18 03:01:04;;;;;;;;;;;24.30;49.60;;;;;;5052814;28;19915;-62
2022/05/18 03:03:29;;;;;;;;;;;24.30;49.60;;;;;;5052531;28;19913;-61
2022/05/18 03:05:55;;;;;;;;;;;24.30;49.60;;;;;;5051221;28;19955;-63
2022/05/18 03:08:20;;;;;;;;;;;24.30;49.60;;;;;;5054376;28;19912;-62
2022/05/18 03:10:46;;;;;;;;;;;24.30;49.50;;;;;;5055005;28;20379;-61
2022/05/18 03:13:11;;;;;;;;;;;24.20;49.50;;;;;;5056037;28;19966;-61
2022/05/18 03:15:37;;;;;;;;;;;24.20;49.40;;;;;;5054936;28;19912;-62
2022/05/18 03:18:02;;;;;;;;;;;24.30;50.20;;;;;;5056003;28;19940;-61
2022/05/18 03:25:56;;;;;;;;;;;24.20;49.40;;;;;;5055813;28;19962;-62
2022/05/18 03:28:21;;;;;;;;;;;24.20;49.50;;;;;;5055804;28;20312;-61
2022/05/18 03:30:47;;;;;;;;;;;24.20;49.40;;;;;;5055660;28;20114;-62
2022/05/18 03:33:12;;;;;;;;;;;24.20;49.40;;;;;;5055747;28;19916;-61
2022/05/18 03:35:38;;;;;;;;;;;24.20;49.40;;;;;;5054484;28;19909;-61
2022/05/18 03:38:05;;;;;;;;;;;24.20;49.30;;;;;;5054571;28;19909;-62
2022/05/18 03:40:36;;;;;;;;;;;24.20;49.30;;;;;;5055466;28;19909;-61
2022/05/18 03:43:02;;;;;;;;;;;24.20;49.40;;;;;;5055218;28;19932;-62
2022/05/18 03:45:28;;;;;;;;;;;24.20;49.40;;;;;;5055381;28;20365;-62
2022/05/18 03:47:53;;;;;;;;;;;24.10;49.10;;;;;;5055249;28;19909;-61
2022/05/18 03:50:19;;;;;;;;;;;24.10;49.30;;;;;;5054020;28;19915;-62
2022/05/18 03:52:44;;;;;;;;;;;24.10;49.20;;;;;;5053991;28;19913;-62
2022/05/18 03:55:09;;;;;;;;;;;24.10;49.20;;;;;;5055277;28;19991;-62
2022/05/18 03:57:35;;;;;;;;;;;24.10;49.20;;;;;;5053977;28;19909;-62
2022/05/18 04:00:01;;;;;;;;;;;24.10;49.10;;;;;;5055170;28;19909;-61
2022/05/18 04:02:26;;;;;;;;;;;24.10;49.10;;;;;;5055064;28;19951;-62
2022/05/18 04:04:51;;;;;;;;;;;24.10;49.00;;;;;;5053769;28;19909;-62
2022/05/18 04:07:17;;;;;;;;;;;24.10;49.00;;;;;;5054879;28;19933;-61
2022/05/18 04:09:45;;;;;;;;;;;24.00;48.90;;;;;;5053825;28;19916;-62
2022/05/18 04:12:10;;;;;;;;;;;24.00;48.90;;;;;;5054902;28;20031;-62
2022/05/18 04:14:36;;;;;;;;;;;24.10;49.00;;;;;;5054827;28;19917;-62
2022/05/18 04:17:01;;;;;;;;;;;24.10;48.90;;;;;;5053603;28;20009;-62
2022/05/18 04:19:27;;;;;;;;;;;24.10;48.80;;;;;;5053915;28;19932;-62
2022/05/18 04:21:52;;;;;;;;;;;24.10;48.90;;;;;;5053603;28;20357;-61
2022/05/18 04:24:17;;;;;;;;;;;24.10;48.80;;;;;;5054722;28;20284;-62
2022/05/18 04:26:43;;;;;;;;;;;24.10;48.80;;;;;;5054606;28;20013;-61
2022/05/18 04:29:08;;;;;;;;;;;24.10;48.80;;;;;;5054511;28;19986;-61
2022/05/18 04:31:34;;;;;;;;;;;24.10;48.70;;;;;;5054460;28;19909;-62
2022/05/18 04:33:59;;;;;;;;;;;24.10;48.60;;;;;;5054483;28;19999;-61
2022/05/18 04:36:25;;;;;;;;;;;24.10;48.70;;;;;;5053019;28;19960;-61
2022/05/18 04:38:50;;;;;;;;;;;24.10;48.70;;;;;;5054641;28;20399;-61
2022/05/18 04:41:16;;;;;;;;;;;24.10;48.70;;;;;;5053035;28;19913;-61
2022/05/18 04:43:41;;;;;;;;;;;24.10;48.60;;;;;;5054402;28;20003;-62
2022/05/18 04:46:07;;;;;;;;;;;24.10;48.80;;;;;;5054172;28;19928;-62
2022/05/18 04:48:33;;;;;;;;;;;24.10;48.50;;;;;;5052812;28;20369;-62
2022/05/18 04:50:58;;;;;;;;;;;24.10;48.60;;;;;;5054138;28;20403;-62
2022/05/18 04:53:24;;;;;;;;;;;24.10;48.50;;;;;;5054232;28;19988;-61
2022/05/18 04:55:49;;;;;;;;;;;24.10;48.40;;;;;;5054114;28;20348;-61
2022/05/18 04:58:15;;;;;;;;;;;24.10;48.30;;;;;;5052510;28;19916;-62
2022/05/18 05:00:41;;;;;;;;;;;24.10;48.30;;;;;;5052414;28;19909;-62
2022/05/18 05:03:06;;;;;;;;;;;24.10;48.20;;;;;;5052437;28;20003;-61
2022/05/18 05:05:32;;;;;;;;;;;24.10;48.30;;;;;;5053973;28;19909;-62
2022/05/18 05:07:57;;;;;;;;;;;24.10;48.20;;;;;;5054090;28;19913;-62
2022/05/18 05:10:23;;;;;;;;;;;24.10;48.20;;;;;;5053852;28;20079;-61
2022/05/18 05:12:48;;;;;;;;;;;24.00;48.30;;;;;;5053631;28;19919;-61
2022/05/18 05:15:14;;;;;;;;;;;24.00;48.40;;;;;;5053746;28;19960;-62
2022/05/18 05:17:39;;;;;;;;;;;24.00;48.30;;;;;;5053705;28;19908;-62
2022/05/18 05:20:05;;;;;;;;;;;23.90;48.30;;;;;;5052413;28;19912;-62
2022/05/18 05:22:31;;;;;;;;;;;23.90;48.60;;;;;;5053778;28;20361;-62
2022/05/18 05:24:56;;;;;;;;;;;23.80;48.70;;;;;;5053372;28;20314;-62
2022/05/18 05:27:22;;;;;;;;;;;23.70;48.50;;;;;;5053469;28;20398;-62
2022/05/18 05:29:47;;;;;;;;;;;23.80;48.50;;;;;;5052185;28;19912;-62
2022/05/18 05:32:13;;;;;;;;;;;23.80;48.50;;;;;;5052326;28;19970;-62
2022/05/18 05:34:39;;;;;;;;;;;23.80;48.40;;;;;;5051903;28;19932;-62
2022/05/18 05:37:04;;;;;;;;;;;23.80;48.20;;;;;;5053468;28;19909;-62
2022/05/18 05:39:29;;;;;;;;;;;23.80;48.20;;;;;;5053693;28;20269;-62
2022/05/18 05:41:55;;;;;;;;;;;23.90;48.30;;;;;;5053341;28;19944;-62
2022/05/18 05:44:20;;;;;;;;;;;23.80;48.00;;;;;;5051847;28;19909;-62
2022/05/18 05:46:46;;;;;;;;;;;23.80;48.20;;;;;;5053176;28;20388;-61
2022/05/18 05:49:11;;;;;;;;;;;23.80;48.10;;;;;;5052935;28;19909;-62
2022/05/18 05:51:37;;;;;;;;;;;23.90;48.00;;;;;;5053315;28;19963;-62
2022/05/18 05:54:02;;;;;;;;;;;23.90;48.10;;;;;;5051832;28;19913;-62
2022/05/18 05:56:28;;;;;;;;;;;23.90;48.00;;;;;;5053054;28;20237;-61
2022/05/18 05:58:53;;;;;;;;;;;23.90;48.00;;;;;;5051670;28;20335;-61
2022/05/18 06:01:19;;;;;;;;;;;23.80;48.30;;;;;;5053213;28;20323;-61
2022/05/18 06:03:44;;;;;;;;;;;23.70;48.40;;;;;;5051609;28;19916;-62
2022/05/18 06:06:10;;;;;;;;;;;23.60;48.50;;;;;;5052859;28;19908;-62
2022/05/18 06:08:35;;;;;;;;;;;23.50;48.50;;;;;;5053271;28;19916;-62
2022/05/18 06:11:01;;;;;;;;;;;23.50;48.60;;;;;;5034924;28;19995;-61
2022/05/18 06:13:27;;;;;;;;;;;23.60;48.80;;;;;;5052757;28;20007;-61
2022/05/18 06:15:53;;;;;;;;;;;23.50;48.70;;;;;;5051679;28;19909;-62
2022/05/18 06:18:18;;;;;;;;;;;23.60;48.40;;;;;;5052637;28;19908;-62
2022/05/18 06:20:46;;;;;;;;;;;23.60;48.30;;;;;;5052773;28;19969;-61
2022/05/18 06:23:11;;;;;;;;;;;23.60;48.30;;;;;;5051499;28;19909;-62
2022/05/18 06:25:36;;;;;;;;;;;23.70;48.20;;;;;;5052707;28;19909;-61
2022/05/18 06:28:02;;;;;;;;;;;23.70;48.20;;;;;;5051276;28;19963;-62
2022/05/18 06:30:28;;;;;;;;;;;23.70;48.30;;;;;;5051282;28;19913;-62
2022/05/18 06:32:53;;;;;;;;;;;23.60;48.40;;;;;;5052867;28;20219;-62
2022/05/18 06:35:19;;;;;;;;;;;23.60;48.40;;;;;;5052602;28;20398;-61
2022/05/18 06:37:44;;;;;;;;;;;23.60;48.50;;;;;;5052918;28;20381;-62
2022/05/18 06:40:10;;;;;;;;;;;23.60;48.40;;;;;;5052353;28;19909;-62
2022/05/18 06:42:36;;;;;;;;;;;23.50;48.30;;;;;;5053398;28;19948;-62
2022/05/18 06:45:03;;;;;;;;;;;23.60;48.30;;;;;;5056371;28;20000;-61
2022/05/18 06:47:28;;;;;;;;;;;23.70;48.10;;;;;;5056489;28;20440;-62
2022/05/18 06:49:54;;;;;;;;;;;23.70;48.00;;;;;;5056519;28;20005;-62
2022/05/18 06:52:19;;;;;;;;;;;23.70;48.00;;;;;;5056288;28;20257;-61
2022/05/18 06:54:45;;;;;;;;;;;23.80;48.10;;;;;;5056419;28;19908;-62
2022/05/18 06:57:10;;;;;;;;;;;23.80;48.00;;;;;;5056200;28;20452;-62
2022/05/18 06:59:36;;;;;;;;;;;23.80;47.90;;;;;;5056407;28;19952;-62
2022/05/18 07:02:02;;;;;;;;;;;23.80;48.20;;;;;;5038722;28;19909;-61
2022/05/18 07:04:27;;;;;;;;;;;23.80;48.10;;;;;;5056402;28;19971;-62
2022/05/18 07:06:54;;;;;;;;;;;23.80;47.90;;;;;;5056154;28;19915;-61
2022/05/18 07:09:20;;;;;;;;;;;23.80;48.00;;;;;;5056458;28;19909;-62
2022/05/18 07:11:46;;;;;;;;;;;23.80;48.20;;;;;;5056269;28;20354;-61
2022/05/18 07:14:12;;;;;;;;;;;23.80;48.00;;;;;;5054553;28;19928;-62
2022/05/18 07:16:37;;;;;;;;;;;23.80;48.80;;;;;;5054805;28;19908;-61
2022/05/18 07:19:03;;;;;;;;;;;23.80;47.90;;;;;;5055846;28;20334;-62
2022/05/18 07:21:29;;;;;;;;;;;23.80;47.90;;;;;;5055991;28;20395;-61
2022/05/18 07:23:54;;;;;;;;;;;23.80;48.00;;;;;;5055861;28;19915;-62
2022/05/18 07:26:20;;;;;;;;;;;23.80;47.70;;;;;;5055679;28;20284;-62
2022/05/18 07:28:46;;;;;;;;;;;23.90;47.70;;;;;;5055716;28;19909;-62
2022/05/18 07:31:11;;;;;;;;;;;23.90;47.80;;;;;;5055662;28;19908;-62
2022/05/18 07:33:37;;;;;;;;;;;23.90;47.70;;;;;;5055813;28;19913;-61
2022/05/18 07:36:03;;;;;;;;;;;23.90;47.80;;;;;;5055630;28;20361;-62
2022/05/18 07:38:29;;;;;;;;;;;23.90;47.70;;;;;;5055664;28;19916;-62
2022/05/18 07:40:54;;;;;;;;;;;23.90;47.70;;;;;;5054186;28;19916;-62
2022/05/18 07:43:20;;;;;;;;;;;23.90;48.00;;;;;;5054219;28;19908;-62
2022/05/18 07:45:46;;;;;;;;;;;23.90;48.00;;;;;;5054139;28;20364;-61
2022/05/18 07:48:11;;;;;;;;;;;23.90;48.00;;;;;;5054161;28;19909;-62
2022/05/18 07:50:37;;;;;;;;;;;23.90;48.00;;;;;;5055346;28;19909;-62
2022/05/18 07:53:02;;;;;;;;;;;23.90;48.10;;;;;;5054080;28;20000;-62
2022/05/18 07:55:27;;;;;;;;;;;23.90;47.80;;;;;;5054005;28;20383;-62
2022/05/18 07:57:53;;;;;;;;;;;24.00;48.00;;;;;;5055145;28;20011;-62
2022/05/18 08:00:19;;;;;;;;;;;23.90;47.80;;;;;;5055110;28;19909;-62
2022/05/18 08:02:44;;;;;;;;;;;23.90;47.80;;;;;;5053880;28;19932;-62
2022/05/18 08:05:10;;;;;;;;;;;23.90;47.80;;;;;;5053642;28;19909;-62
2022/05/18 08:07:35;;;;;;;;;;;23.90;47.90;;;;;;5037221;28;19909;-62
2022/05/18 08:15:30;;;;;;;;;;;23.90;47.80;;;;;;5054842;28;19920;-62
2022/05/18 08:17:55;;;;;;;;;;;24.00;47.70;;;;;;5053533;28;20261;-62
2022/05/18 08:20:21;;;;;;;;;;;24.00;47.70;;;;;;5053570;28;20007;-62
2022/05/18 08:22:46;;;;;;;;;;;24.00;47.80;;;;;;5054746;28;19915;-62
2022/05/18 08:25:12;;;;;;;;;;;24.00;47.70;;;;;;5053303;28;19909;-62
2022/05/18 08:27:41;;;;;;;;;;;24.00;47.70;;;;;;5053557;28;20012;-62
2022/05/18 08:30:07;;;;;;;;;;;24.00;47.70;;;;;;5054463;28;20005;-62
2022/05/18 08:32:32;;;;;;;;;;;24.00;47.70;;;;;;5054683;28;19944;-62
2022/05/18 08:34:58;;;;;;;;;;;24.00;47.70;;;;;;5054337;28;19913;-61
2022/05/18 08:37:23;;;;;;;;;;;24.10;47.80;;;;;;5054434;28;19909;-62
2022/05/18 08:39:50;;;;;;;;;;;24.10;47.80;;;;;;5054622;28;19959;-62
2022/05/18 08:42:15;;;;;;;;;;;24.10;48.40;;;;;;5053133;28;20007;-62
2022/05/18 08:44:40;;;;;;;;;;;24.00;48.00;;;;;;5054199;28;19960;-62
2022/05/18 08:47:11;;;;;;;;;;;24.00;48.60;;;;;;5054366;28;20357;-62
2022/05/18 08:49:39;;;;;;;;;;;24.00;48.70;;;;;;5054185;28;20424;-62
2022/05/18 08:52:20;;;;;;;;;;;24.00;48.70;;;;;;5053862;28;19916;-62
2022/05/18 08:54:46;;;;;;;;;;;24.00;48.90;;;;;;5054703;28;20005;-62
2022/05/18 08:57:22;;;;;;;;;;;24.00;48.90;;;;;;5054023;28;19909;-62
2022/05/18 08:59:49;;;;;;;;;;;24.00;48.90;;;;;;5052826;28;20323;-61
2022/05/18 09:02:22;;;;;;;;;;;24.00;49.20;;;;;;5052627;28;19962;-62
2022/05/18 09:04:47;;;;;;;;;;;23.90;49.10;;;;;;5053839;28;19916;-62
2022/05/18 09:07:15;;;;;;;;;;;24.00;49.10;;;;;;5053407;28;19909;-62
2022/05/18 09:12:37;;;;;;;;;;;24.00;49.20;;;;;;5052675;28;19920;-62
2022/05/18 09:15:03;;;;;;;;;;;24.00;49.10;;;;;;5052547;28;19908;-62
2022/05/18 09:17:36;;;;;;;;;;;24.00;49.30;;;;;;5053614;28;19995;-62
2022/05/18 09:20:13;;;;;;;;;;;24.00;49.10;;;;;;5053551;28;19908;-62
2022/05/18 09:22:58;;;;;;;;;;;24.00;49.20;;;;;;5052403;28;20004;-61
2022/05/18 09:25:23;;;;;;;;;;;24.00;49.10;;;;;;5053371;28;19916;-62
2022/05/18 09:27:50;;;;;;;;;;;24.00;49.60;;;;;;5053407;28;20375;-62
2022/05/18 09:30:40;;;;;;;;;;;24.00;49.40;;;;;;5053380;28;19913;-61
2022/05/18 09:33:07;;;;;;;;;;;24.00;49.70;;;;;;5053274;28;20293;-62
2022/05/18 09:35:48;;;;;;;;;;;24.00;49.80;;;;;;5053355;28;19982;-62
2022/05/18 09:38:16;;;;;;;;;;;24.00;49.60;;;;;;5053532;28;19956;-62
2022/05/18 09:40:43;;;;;;;;;;;24.00;49.60;;;;;;5035377;28;19909;-62
2022/05/18 09:43:18;;;;;;;;;;;24.00;49.80;;;;;;5051892;28;19940;-62
2022/05/18 09:45:45;;;;;;;;;;;24.00;50.00;;;;;;5051877;28;19999;-61
2022/05/18 09:48:12;;;;;;;;;;;24.00;50.00;;;;;;5051770;28;19924;-62
2022/05/18 09:50:38;;;;;;;;;;;24.00;50.20;;;;;;5051892;28;19909;-62
2022/05/18 09:53:03;;;;;;;;;;;24.00;50.10;;;;;;5051770;28;19919;-62
2022/05/18 09:55:29;;;;;;;;;;;24.10;50.20;;;;;;5051727;28;19958;-62
2022/05/18 09:58:02;;;;;;;;;;;24.10;50.20;;;;;;5053012;28;19909;-62
2022/05/18 10:00:27;;;;;;;;;;;24.10;50.20;;;;;;5052860;28;20003;-62
2022/05/18 10:08:23;;;;;;;;;;;24.10;50.20;;;;;;5052180;28;19962;-62
2022/05/18 10:10:53;;;;;;;;;;;24.10;50.10;;;;;;5051424;28;19917;-62
2022/05/18 10:13:19;;;;;;;;;;;24.10;50.20;;;;;;5051411;28;20003;-62
2022/05/18 10:15:45;;;;;;;;;;;24.10;50.40;;;;;;5051735;28;19999;-61
2022/05/18 10:18:18;;;;;;;;;;;24.10;50.20;;;;;;5050894;28;20372;-62
2022/05/18 10:20:59;;;;;;;;;;;24.20;50.20;;;;;;5052626;28;19958;-62
2022/05/18 10:23:33;;;;;;;;;;;24.20;50.30;;;;;;5051381;28;20381;-62
2022/05/18 10:25:58;;;;;;;;;;;24.10;50.40;;;;;;5052739;28;19951;-62
2022/05/18 10:28:25;;;;;;;;;;;24.20;50.60;;;;;;5051268;28;19913;-62
2022/05/18 10:31:13;;;;;;;;;;;24.20;50.70;;;;;;5051379;28;19912;-62
2022/05/18 10:33:39;;;;;;;;;;;24.20;50.50;;;;;;5052376;28;20376;-62
2022/05/18 10:36:08;;;;;;;;;;;24.20;50.50;;;;;;5051337;28;19939;-62
2022/05/18 10:38:33;;;;;;;;;;;24.20;51.20;;;;;;5052698;28;20365;-62
2022/05/18 10:41:02;;;;;;;;;;;24.30;50.70;;;;;;5051171;28;19962;-62
2022/05/18 10:43:34;;;;;;;;;;;24.30;50.40;;;;;;5051187;28;20280;-62
2022/05/18 10:46:04;;;;;;;;;;;24.30;50.70;;;;;;5050993;28;19971;-62
2022/05/18 10:48:30;;;;;;;;;;;24.30;50.60;;;;;;5051052;28;19909;-62
2022/05/18 10:50:59;;;;;;;;;;;24.30;50.50;;;;;;5051317;28;19916;-62
2022/05/18 10:53:27;;;;;;;;;;;24.30;50.60;;;;;;5052059;28;19917;-62
2022/05/18 10:55:54;;;;;;;;;;;24.30;50.60;;;;;;5051321;28;19967;-62
2022/05/18 10:58:22;;;;;;;;;;;24.30;50.40;;;;;;5052269;28;20353;-61
2022/05/18 11:00:50;;;;;;;;;;;24.30;50.70;;;;;;5050889;28;20438;-62
2022/05/18 11:03:22;;;;;;;;;;;24.30;50.70;;;;;;5052216;28;20330;-62
2022/05/18 11:05:49;;;;;;;;;;;24.40;50.70;;;;;;5050940;28;19908;-62
2022/05/18 11:08:15;;;;;;;;;;;24.40;50.60;;;;;;5052413;28;20337;-62
2022/05/18 11:10:50;;;;;;;;;;;24.40;50.60;;;;;;5050969;28;19963;-62
2022/05/18 11:13:34;;;;;;;;;;;24.50;50.80;;;;;;5050827;28;19913;-62
2022/05/18 11:16:02;;;;;;;;;;;24.50;50.80;;;;;;5052120;28;19916;-62
2022/05/18 11:18:37;;;;;;;;;;;24.50;50.80;;;;;;5050907;28;19928;-62
2022/05/18 11:21:02;;;;;;;;;;;24.50;50.90;;;;;;5052134;28;19909;-62
2022/05/18 11:23:46;;;;;;;;;;;24.50;50.70;;;;;;5051983;28;19916;-61
2022/05/18 11:26:23;;;;;;;;;;;24.50;50.70;;;;;;5052092;28;19916;-62
2022/05/18 11:28:52;;;;;;;;;;;24.50;50.90;;;;;;5051502;28;19912;-62
2022/05/18 11:31:32;;;;;;;;;;;24.50;50.70;;;;;;5054364;28;19920;-62
2022/05/18 11:34:09;;;;;;;;;;;24.50;50.80;;;;;;5054176;28;19913;-62
2022/05/18 11:36:47;;;;;;;;;;;24.60;51.20;;;;;;5055615;28;19920;-62
2022/05/18 11:39:36;;;;;;;;;;;24.60;51.60;;;;;;5054490;28;19908;-62
2022/05/18 11:42:17;;;;;;;;;;;24.60;51.10;;;;;;5035981;28;19913;-62
2022/05/18 11:44:46;;;;;;;;;;;24.70;51.00;;;;;;5055225;28;19920;-62
2022/05/18 11:47:50;;;;;;;;;;;24.70;51.10;;;;;;5054089;28;19909;-62
2022/05/18 11:50:20;;;;;;;;;;;24.70;50.90;;;;;;5013345;28;19917;-62
2022/05/18 11:53:20;;;;;;;;;;;24.70;50.90;;;;;;4997189;28;19921;-62
2022/05/18 11:55:59;;;;;;;;;;;24.70;51.00;;;;;;4988161;28;19910;-61
2022/05/18 11:58:26;;;;;;;;;;;24.70;51.00;;;;;;5044254;28;19912;-62
2022/05/18 12:00:56;;;;;;;;;;;24.80;51.10;;;;;;5055120;28;19924;-62
2022/05/18 12:03:41;;;;;;;;;;;24.70;51.00;;;;;;5054844;28;19909;-62
2022/05/18 12:06:19;;;;;;;;;;;24.80;51.00;;;;;;5054798;28;19915;-62
2022/05/18 12:08:47;;;;;;;;;;;24.80;51.00;;;;;;5055184;28;19947;-61
2022/05/18 12:11:21;;;;;;;;;;;24.80;51.40;;;;;;5054735;28;19962;-62
2022/05/18 12:13:54;;;;;;;;;;;24.90;51.30;;;;;;5054828;28;19913;-62
2022/05/18 12:16:34;;;;;;;;;;;24.90;51.20;;;;;;5054775;28;19912;-62
2022/05/18 12:19:21;;;;;;;;;;;24.90;51.80;;;;;;5053620;28;19908;-62
2022/05/18 12:21:48;;;;;;;;;;;24.90;51.20;;;;;;5053337;28;19931;-61
2022/05/18 12:24:13;;;;;;;;;;;25.00;51.30;;;;;;5054624;28;19978;-62
2022/05/18 12:26:40;;;;;;;;;;;25.00;51.30;;;;;;5053278;28;19917;-62
2022/05/18 12:29:06;;;;;;;;;;;25.00;51.20;;;;;;5052884;28;19963;-62
2022/05/18 12:31:32;;;;;;;;;;;25.10;51.20;;;;;;5053118;28;19909;-62
2022/05/18 12:34:03;;;;;;;;;;;25.10;51.10;;;;;;5054254;28;19913;-62
2022/05/18 12:36:32;;;;;;;;;;;25.10;51.10;;;;;;5036449;28;19959;-62
2022/05/18 12:39:06;;;;;;;;;;;25.10;51.20;;;;;;5053435;28;19909;-62
2022/05/18 12:41:31;;;;;;;;;;;25.10;51.10;;;;;;5052307;28;19916;-62
2022/05/18 12:44:03;;;;;;;;;;;25.10;51.20;;;;;;5052894;28;19909;-62
2022/05/18 12:46:32;;;;;;;;;;;25.10;51.20;;;;;;5053979;28;19928;-62
2022/05/18 12:48:58;;;;;;;;;;;25.20;51.30;;;;;;5053002;28;19909;-62
2022/05/18 12:51:27;;;;;;;;;;;25.20;51.20;;;;;;5052918;28;19908;-62
2022/05/18 12:54:10;;;;;;;;;;;25.20;51.20;;;;;;5054212;28;19960;-62
2022/05/18 12:56:38;;;;;;;;;;;25.20;51.30;;;;;;5053594;28;21277;-62
2022/05/18 12:59:07;;;;;;;;;;;25.30;51.30;;;;;;5053976;28;20367;-62
2022/05/18 13:01:38;;;;;;;;;;;25.30;51.20;;;;;;5052629;28;19955;-62
2022/05/18 13:04:09;;;;;;;;;;;25.30;51.20;;;;;;5052593;28;20396;-62
2022/05/18 13:06:35;;;;;;;;;;;25.30;51.20;;;;;;5053658;28;19934;-63
2022/05/18 13:09:04;;;;;;;;;;;25.30;51.20;;;;;;5054055;28;20376;-62
2022/05/18 13:11:34;;;;;;;;;;;25.30;51.10;;;;;;5053822;28;19912;-62
2022/05/18 13:14:04;;;;;;;;;;;25.30;51.00;;;;;;5053694;28;19920;-62
2022/05/18 13:16:35;;;;;;;;;;;25.40;50.90;;;;;;5053547;28;20003;-62
2022/05/18 13:19:00;;;;;;;;;;;25.40;51.20;;;;;;5053637;28;19955;-62
2022/05/18 13:21:27;;;;;;;;;;;25.40;51.20;;;;;;5052288;28;19909;-62
2022/05/18 13:23:53;;;;;;;;;;;25.40;51.20;;;;;;5053583;28;19909;-62
2022/05/18 13:26:26;;;;;;;;;;;25.40;51.40;;;;;;5053465;28;19913;-62
2022/05/18 13:28:51;;;;;;;;;;;25.40;51.30;;;;;;5052229;28;19916;-62
2022/05/18 13:31:17;;;;;;;;;;;25.50;51.30;;;;;;5051874;28;19909;-62
2022/05/18 13:33:48;;;;;;;;;;;25.50;51.30;;;;;;5051971;28;19920;-62
2022/05/18 13:36:13;;;;;;;;;;;25.50;51.20;;;;;;5052170;28;20003;-62
2022/05/18 13:38:39;;;;;;;;;;;25.60;51.00;;;;;;5053831;28;19944;-62
2022/05/18 13:41:09;;;;;;;;;;;25.60;51.00;;;;;;5053123;28;19930;-62
2022/05/18 13:43:35;;;;;;;;;;;25.40;51.10;;;;;;5053045;28;19927;-62
2022/05/18 13:46:04;;;;;;;;;;;25.50;51.20;;;;;;5053049;28;19921;-62
2022/05/18 13:48:30;;;;;;;;;;;25.50;51.10;;;;;;5035236;28;19913;-62
2022/05/18 13:50:56;;;;;;;;;;;25.50;51.00;;;;;;5053009;28;19931;-62
2022/05/18 13:53:23;;;;;;;;;;;25.50;51.10;;;;;;5050583;28;19912;-62
2022/05/18 13:55:49;;;;;;;;;;;25.50;51.30;;;;;;5052894;28;19942;-62
2022/05/18 13:58:16;;;;;;;;;;;25.50;51.40;;;;;;5052786;28;20008;-62
2022/05/18 14:00:46;;;;;;;;;;;25.50;51.50;;;;;;5034969;28;20372;-62
2022/05/18 14:03:12;;;;;;;;;;;25.60;51.40;;;;;;5052969;28;19909;-62
2022/05/18 14:05:39;;;;;;;;;;;25.60;51.30;;;;;;5051847;28;19996;-62
2022/05/18 14:08:14;;;;;;;;;;;25.60;51.10;;;;;;5053146;28;19915;-61
2022/05/18 14:10:39;;;;;;;;;;;25.60;51.00;;;;;;5052928;28;19913;-61
2022/05/18 14:13:05;;;;;;;;;;;25.60;51.00;;;;;;5052893;28;19967;-62
2022/05/18 14:15:31;;;;;;;;;;;25.60;51.00;;;;;;5051724;28;19962;-62
2022/05/18 14:17:56;;;;;;;;;;;25.60;51.00;;;;;;5051641;28;20357;-62
2022/05/18 14:20:43;;;;;;;;;;;25.60;50.90;;;;;;5052714;28;19966;-62
2022/05/18 14:23:15;;;;;;;;;;;25.60;51.10;;;;;;5053128;28;19924;-60
2022/05/18 14:25:41;;;;;;;;;;;25.50;51.90;;;;;;5052813;28;20034;-59
2022/05/18 14:28:07;;;;;;;;;;;25.60;51.20;;;;;;5052661;28;19909;-59
2022/05/18 14:30:34;;;;;;;;;;;25.60;51.30;;;;;;5052663;28;19967;-60
2022/05/18 14:33:01;;;;;;;;;;;25.60;51.20;;;;;;5052633;28;19923;-62
2022/05/18 14:35:36;;;;;;;;;;;25.60;51.20;;;;;;5051388;28;19915;-62
2022/05/18 14:38:03;;;;;;;;;;;25.60;51.10;;;;;;5052993;28;19909;-61
2022/05/18 14:40:31;;;;;;;;;;;25.70;51.20;;;;;;5051418;28;19916;-62